Time;durP1;ratioP1;P1;durP2;ratioP2;P2;SDS_P1;SDS_P2;PMS_P1;PMS_P2;Temp;Humidity;BMP_temperature;BMP_pressure;BME280_temperature;BME280_humidity;BME280_pressure;Samples;Min_cycle;Max_cycle;Signal;HPM_P1;HPM_P2
2023/04/17 00:02:54;;;;;;;7.10;6.40;;;;;;;5.34;90.93;97875.28;6265770;28;20915;-54
2023/04/17 00:05:57;;;;;;;7.27;5.60;;;;;;;5.33;91.16;97871.00;6269346;28;20235;-53
2023/04/17 00:08:59;;;;;;;7.17;6.43;;;;;;;5.35;91.04;97867.13;6268303;28;20311;-53
2023/04/17 00:12:01;;;;;;;7.33;6.00;;;;;;;5.47;91.32;97862.06;6266950;28;20617;-52
2023/04/17 00:15:04;;;;;;;8.10;7.20;;;;;;;5.51;91.46;97857.97;6265075;28;20296;-52
2023/04/17 00:18:05;;;;;;;7.93;7.13;;;;;;;5.68;91.34;97861.03;6266442;28;20216;-52
2023/04/17 00:21:08;;;;;;;7.60;6.80;;;;;;;5.68;91.43;97861.03;6268711;28;20249;-54
2023/04/17 00:24:11;;;;;;;6.60;6.00;;;;;;;5.65;91.25;97850.84;6269539;28;20212;-54
2023/04/17 00:27:14;;;;;;;11.90;6.83;;;;;;;5.63;91.41;97855.53;6267510;28;20227;-52
2023/04/17 00:30:16;;;;;;;7.70;6.90;;;;;;;5.99;90.93;97859.56;6266679;28;20370;-52
2023/04/17 00:33:18;;;;;;;11.23;8.10;;;;;;;6.06;90.47;97853.25;6250016;28;20221;-52
2023/04/17 00:36:21;;;;;;;7.60;6.80;;;;;;;6.22;90.30;97840.56;6269911;28;20245;-54
2023/04/17 00:39:24;;;;;;;8.23;7.43;;;;;;;6.35;88.98;97856.38;6269285;28;20241;-54
2023/04/17 00:42:26;;;;;;;7.63;6.23;;;;;;;6.36;88.65;97852.72;6239129;28;20227;-53
2023/04/17 00:45:29;;;;;;;8.20;6.97;;;;;;;6.59;87.61;97857.47;6264485;28;20262;-54
2023/04/17 00:48:34;;;;;;;6.07;5.30;;;;;;;6.65;86.84;97864.56;6266499;28;20260;-54
2023/04/17 00:51:36;;;;;;;7.67;6.83;;;;;;;6.73;86.49;97853.72;6266608;28;20652;-55
2023/04/17 00:54:38;;;;;;;6.87;5.77;;;;;;;6.66;86.19;97861.72;6271452;28;20228;-54
2023/04/17 00:57:42;;;;;;;6.53;5.93;;;;;;;6.58;85.84;97837.34;6265704;28;20314;-53
2023/04/17 01:00:44;;;;;;;7.47;6.13;;;;;;;6.70;86.03;97849.69;6266727;28;20274;-56
2023/04/17 01:03:49;;;;;;;5.43;4.93;;;;;;;6.63;86.35;97854.19;6266249;28;20709;-54
2023/04/17 01:06:52;;;;;;;7.00;5.60;;;;;;;6.40;87.16;97843.31;6265852;28;20240;-55
2023/04/17 01:09:54;;;;;;;6.87;6.10;;;;;;;6.75;84.61;97845.56;6265962;28;20243;-54
2023/04/17 01:13:04;;;;;;;7.20;6.20;;;;;;;6.73;83.97;97828.06;6266912;28;20237;-54
2023/04/17 01:16:07;;;;;;;7.27;6.33;;;;;;;6.81;84.40;97850.03;6248858;28;20234;-54
2023/04/17 01:19:12;;;;;;;8.40;7.17;;;;;;;6.88;83.70;97838.34;6267461;28;20237;-55
2023/04/17 01:22:15;;;;;;;7.93;6.70;;;;;;;6.97;82.91;97845.03;6265414;28;20596;-55
2023/04/17 01:25:18;;;;;;;8.23;6.57;;;;;;;7.04;82.44;97844.16;6265604;28;20326;-54
2023/04/17 01:28:21;;;;;;;7.20;6.50;;;;;;;7.04;82.21;97841.50;6265183;28;20407;-53
2023/04/17 01:31:25;;;;;;;6.90;6.30;;;;;;;6.97;82.63;97841.56;6267155;28;20241;-54
2023/04/17 01:34:29;;;;;;;9.20;6.60;;;;;;;7.05;82.12;97845.81;6266550;28;20223;-52
2023/04/17 01:37:31;;;;;;;7.00;6.23;;;;;;;7.15;81.76;97843.50;6265220;28;20296;-54
2023/04/17 01:40:33;;;;;;;7.67;6.67;;;;;;;6.91;82.46;97839.78;6265058;28;20232;-54
2023/04/17 01:43:40;;;;;;;7.47;6.67;;;;;;;7.10;81.67;97845.97;6271725;28;20228;-54
2023/04/17 01:46:42;;;;;;;7.33;6.50;;;;;;;6.93;81.28;97792.69;6266629;28;20316;-54
2023/04/17 01:49:44;;;;;;;7.83;6.27;;;;;;;7.08;81.61;97838.22;6266689;28;20253;-56
2023/04/17 01:52:47;;;;;;;7.33;6.13;;;;;;;7.01;82.09;97841.97;6265808;28;20280;-54
2023/04/17 01:55:49;;;;;;;6.77;6.07;;;;;;;7.09;81.72;97841.69;6267507;28;20239;-52
2023/04/17 01:58:51;;;;;;;6.63;5.90;;;;;;;7.07;81.59;97846.38;6263581;28;20753;-53
2023/04/17 02:01:54;;;;;;;7.07;6.37;;;;;;;7.11;81.61;97848.41;6264712;28;20353;-52
2023/04/17 02:04:57;;;;;;;7.80;7.00;;;;;;;7.15;81.11;97854.09;6264450;28;20233;-53
2023/04/17 02:07:59;;;;;;;8.30;6.43;;;;;;;7.22;80.85;97860.13;6266007;28;20317;-54
2023/04/17 02:11:01;;;;;;;7.13;6.43;;;;;;;7.05;80.91;97835.22;6261600;28;20242;-53
2023/04/17 02:14:03;;;;;;;7.30;6.60;;;;;;;6.81;81.11;97799.72;6264492;28;20635;-53
2023/04/17 02:17:05;;;;;;;7.03;6.43;;;;;;;7.00;81.75;97848.28;6266584;28;20275;-53
2023/04/17 02:20:08;;;;;;;8.23;7.40;;;;;;;7.10;81.29;97852.06;6267012;28;20228;-53
2023/04/17 02:23:11;;;;;;;7.30;6.50;;;;;;;6.80;82.21;97824.56;6262009;28;20233;-53
2023/04/17 02:26:13;;;;;;;8.40;7.43;;;;;;;6.97;82.36;97850.31;6266421;28;20237;-52
2023/04/17 02:29:18;;;;;;;8.33;7.53;;;;;;;7.08;81.92;97845.34;6266458;28;20336;-52
2023/04/17 02:32:20;;;;;;;8.40;7.50;;;;;;;7.07;81.53;97859.63;6265564;28;20241;-53
2023/04/17 02:35:25;;;;;;;8.40;7.40;;;;;;;7.03;81.68;97855.78;6262079;28;20394;-54
2023/04/17 02:38:29;;;;;;;7.73;6.93;;;;;;;7.14;80.81;97836.53;6264646;28;20265;-54
2023/04/17 02:41:31;;;;;;;7.73;7.03;;;;;;;7.10;81.53;97848.63;6264400;28;20709;-56
2023/04/17 02:44:33;;;;;;;7.40;6.63;;;;;;;6.93;81.62;97816.53;6266061;28;20240;-53
2023/04/17 02:47:36;;;;;;;8.23;7.00;;;;;;;7.13;81.12;97837.56;6265530;28;20597;-53
2023/04/17 02:50:38;;;;;;;8.33;7.43;;;;;;;7.09;81.30;97845.13;6263885;28;20248;-54
2023/04/17 02:53:44;;;;;;;7.83;7.03;;;;;;;7.28;80.29;97838.06;6246079;28;20244;-53
2023/04/17 02:56:46;;;;;;;7.10;6.40;;;;;;;7.14;80.77;97833.88;6263770;28;20322;-54
2023/04/17 02:59:49;;;;;;;6.60;6.00;;;;;;;6.71;80.02;97739.31;6263741;28;20384;-53
2023/04/17 03:02:52;;;;;;;7.27;6.57;;;;;;;7.24;80.43;97842.16;6263626;28;20277;-54
2023/04/17 03:05:54;;;;;;;6.80;5.93;;;;;;;7.34;79.67;97842.53;6263319;28;20322;-50
2023/04/17 03:08:56;;;;;;;7.53;6.07;;;;;;;7.28;79.87;97834.59;6246860;28;20280;-52
2023/04/17 03:11:58;;;;;;;7.40;6.70;;;;;;;7.36;79.35;97837.78;6264860;28;20238;-54
2023/04/17 03:15:01;;;;;;;7.07;6.37;;;;;;;7.39;79.57;97842.69;6254036;28;20238;-54
2023/04/17 03:18:03;;;;;;;6.63;6.00;;;;;;;7.02;80.12;97812.59;6263338;28;20835;-52
2023/04/17 03:21:06;;;;;;;7.40;6.60;;;;;;;7.38;78.86;97846.31;6264040;28;20215;-52
2023/04/17 03:24:10;;;;;;;6.87;6.17;;;;;;;7.33;79.48;97843.53;6269953;28;20219;-53
2023/04/17 03:27:12;;;;;;;7.40;6.70;;;;;;;7.25;79.84;97851.75;6269718;28;20210;-51
2023/04/17 03:30:16;;;;;;;6.77;6.07;;;;;;;7.27;79.95;97843.59;6268067;28;20240;-53
2023/04/17 03:33:21;;;;;;;8.13;6.13;;;;;;;7.26;79.77;97839.31;6268138;28;20233;-52
2023/04/17 03:36:23;;;;;;;6.73;6.10;;;;;;;7.44;78.62;97849.97;6270762;28;20704;-52
2023/04/17 03:39:26;;;;;;;6.10;5.50;;;;;;;7.28;79.56;97851.31;6267980;28;20238;-54
2023/04/17 03:42:28;;;;;;;6.97;6.03;;;;;;;7.37;79.29;97846.56;6267742;28;20239;-54
2023/04/17 03:45:30;;;;;;;6.33;5.70;;;;;;;7.18;79.60;97843.03;6268307;28;20232;-54
2023/04/17 03:48:32;;;;;;;6.10;5.50;;;;;;;7.29;79.42;97855.59;6266456;28;20229;-54
2023/04/17 03:51:34;;;;;;;5.87;5.30;;;;;;;7.20;80.11;97851.59;6268488;28;20251;-51
2023/04/17 03:54:44;;;;;;;6.80;6.10;;;;;;;7.30;79.53;97849.28;6268923;28;20253;-52
2023/04/17 03:57:48;;;;;;;6.33;5.73;;;;;;;7.25;79.69;97849.13;6268846;28;20241;-50
2023/04/17 04:00:57;;;;;;;6.90;5.40;;;;;;;7.10;80.03;97845.97;6300010;28;20254;-53
2023/04/17 04:04:03;;;;;;;5.97;5.37;;;;;;;7.09;80.38;97842.47;6263935;28;20336;-52
2023/04/17 04:07:06;;;;;;;5.70;5.17;;;;;;;7.45;78.63;97859.53;6266876;28;20233;-53
2023/04/17 04:10:09;;;;;;;6.07;5.47;;;;;;;7.23;79.36;97853.78;6263214;28;20237;-52
2023/04/17 04:13:11;;;;;;;7.60;5.37;;;;;;;7.12;80.05;97838.59;6276226;28;20229;-52
2023/04/17 04:16:17;;;;;;;5.50;5.00;;;;;;;7.20;79.93;97841.81;6267065;28;20780;-51
2023/04/17 04:19:19;;;;;;;6.23;5.63;;;;;;;7.08;80.15;97843.50;6266459;28;20247;-53
2023/04/17 04:22:21;;;;;;;5.77;5.20;;;;;;;6.87;81.15;97843.88;6267433;28;20791;-53
2023/04/17 04:25:27;;;;;;;6.97;5.57;;;;;;;7.04;80.62;97849.44;6262656;28;20595;-51
2023/04/17 04:28:46;;;;;;;5.60;5.10;;;;;;;6.95;81.07;97844.44;6265432;28;20321;-53
2023/04/17 04:31:54;;;;;;;7.10;5.20;;;;;;;6.95;81.21;97848.94;6268181;28;20230;-53
2023/04/17 04:35:00;;;;;;;8.10;5.70;;;;;;;6.65;82.06;97815.09;6264070;28;20232;-52
2023/04/17 04:38:03;;;;;;;6.43;5.73;;;;;;;6.79;81.78;97847.56;6266090;28;20749;-52
2023/04/17 04:41:09;;;;;;;6.20;5.60;;;;;;;6.78;82.39;97853.91;6268931;28;20227;-53
2023/04/17 04:44:17;;;;;;;6.97;6.27;;;;;;;6.80;82.24;97851.88;6265303;28;20237;-51
2023/04/17 04:47:21;;;;;;;6.87;5.90;;;;;;;6.82;82.02;97860.41;6266894;28;20229;-51
2023/04/17 04:50:24;;;;;;;6.23;5.63;;;;;;;6.54;82.21;97813.13;6265710;28;20296;-52
2023/04/17 04:53:26;;;;;;;6.13;5.23;;;;;;;6.78;82.71;97877.72;6263896;28;20224;-51
2023/04/17 04:56:31;;;;;;;7.63;5.40;;;;;;;6.60;82.40;97840.56;6265844;28;20231;-53
2023/04/17 04:59:34;;;;;;;7.77;5.17;;;;;;;6.78;83.23;97877.72;6265805;28;20748;-53
2023/04/17 05:03:06;;;;;;;6.10;5.50;;;;;;;6.79;83.32;97884.66;6260754;28;20351;-51
2023/04/17 05:06:10;;;;;;;7.10;5.90;;;;;;;6.83;83.78;97879.75;6265134;28;20216;-53
2023/04/17 05:09:17;;;;;;;5.67;4.97;;;;;;;6.83;82.56;97848.78;6266625;28;20227;-52
2023/04/17 05:12:22;;;;;;;6.07;5.53;;;;;;;7.16;81.82;97880.34;6260884;28;20704;-53
2023/04/17 05:15:24;;;;;;;5.87;5.37;;;;;;;7.23;81.71;97886.41;6267191;28;20317;-51
2023/04/17 05:18:27;;;;;;;6.90;6.30;;;;;;;7.53;79.75;97888.41;6266095;28;20261;-52
2023/04/17 05:21:30;;;;;;;7.47;5.77;;;;;;;7.47;80.70;97898.03;6267703;28;20668;-53
2023/04/17 05:24:34;;;;;;;6.73;6.07;;;;;;;7.20;80.81;97849.75;6265617;28;20238;-51
2023/04/17 05:27:36;;;;;;;5.60;5.00;;;;;;;7.61;79.61;97896.09;6245811;28;20287;-53
2023/04/17 05:30:39;;;;;;;6.03;5.43;;;;;;;7.84;78.35;97900.81;6265028;28;20282;-53
2023/04/17 05:33:49;;;;;;;6.83;5.80;;;;;;;7.85;76.91;97875.91;6264540;28;20261;-52
2023/04/17 05:36:51;;;;;;;7.83;6.50;;;;;;;8.07;77.00;97899.34;6265587;28;20231;-51
2023/04/17 05:39:53;;;;;;;6.33;5.70;;;;;;;8.09;76.89;97900.75;6266329;28;20385;-53
2023/04/17 05:42:55;;;;;;;7.13;6.43;;;;;;;8.07;76.09;97876.25;6264963;28;20233;-52
2023/04/17 05:45:58;;;;;;;7.47;5.47;;;;;;;8.31;76.30;97895.81;6265596;28;20293;-53
2023/04/17 05:49:00;;;;;;;7.10;5.97;;;;;;;8.26;76.72;97893.00;6266431;28;20394;-50
2023/04/17 05:52:02;;;;;;;6.23;5.43;;;;;;;8.44;75.46;97889.56;6266505;28;20508;-52
2023/04/17 05:55:05;;;;;;;6.33;5.73;;;;;;;8.44;75.31;97900.19;6263098;28;20370;-52
2023/04/17 05:58:08;;;;;;;7.60;6.70;;;;;;;8.38;75.81;97901.09;6266309;28;20227;-52
2023/04/17 06:01:28;;;;;;;6.63;5.47;;;;;;;8.53;74.79;97898.88;6263283;28;20244;-52
2023/04/17 06:04:31;;;;;;;5.80;5.30;;;;;;;8.40;75.36;97901.66;6265251;28;20239;-53
2023/04/17 06:07:37;;;;;;;7.13;5.77;;;;;;;8.48;76.55;97894.22;6265180;28;20234;-52
2023/04/17 06:10:39;;;;;;;6.60;5.90;;;;;;;8.51;75.04;97899.06;6261674;28;20685;-50
2023/04/17 06:13:42;;;;;;;6.80;6.10;;;;;;;8.53;76.07;97899.66;6264758;28;20798;-51
2023/04/17 06:16:44;;;;;;;7.13;6.40;;;;;;;8.59;75.39;97910.44;6264908;28;20230;-52
2023/04/17 06:19:49;;;;;;;6.47;5.87;;;;;;;8.65;74.89;97896.25;6267125;28;20227;-51
2023/04/17 06:22:51;;;;;;;6.73;6.03;;;;;;;8.56;74.04;97871.03;6265675;28;20368;-52
2023/04/17 06:25:54;;;;;;;6.00;5.40;;;;;;;8.74;74.30;97898.38;6265118;28;20237;-52
2023/04/17 06:28:56;;;;;;;6.53;5.93;;;;;;;8.77;74.04;97897.94;6264363;28;20241;-52
2023/04/17 06:31:59;;;;;;;6.53;5.80;;;;;;;8.62;73.82;97870.97;6265625;28;20244;-55
2023/04/17 06:35:02;;;;;;;6.60;5.97;;;;;;;8.74;74.49;97911.66;6264797;28;20241;-54
2023/04/17 06:38:16;;;;;;;6.70;6.00;;;;;;;8.83;73.15;97906.84;6268377;28;20228;-53
2023/04/17 06:41:19;;;;;;;9.53;6.23;;;;;;;8.81;73.77;97911.56;6270041;28;20260;-50
2023/04/17 06:44:21;;;;;;;6.50;5.90;;;;;;;8.79;73.70;97911.00;6264542;28;20237;-54
2023/04/17 06:47:23;;;;;;;8.93;5.70;;;;;;;8.81;73.74;97910.75;6261826;28;20261;-54
2023/04/17 06:50:26;;;;;;;7.77;6.70;;;;;;;8.88;74.10;97914.16;6265277;28;20238;-52
2023/04/17 06:53:28;;;;;;;6.63;5.93;;;;;;;8.91;73.22;97909.19;6265934;28;20230;-53
2023/04/17 06:56:30;;;;;;;7.13;6.10;;;;;;;9.21;72.38;97929.63;6267328;28;20232;-53
2023/04/17 06:59:33;;;;;;;6.77;5.87;;;;;;;9.26;71.72;97927.09;6268007;28;20242;-53
2023/04/17 07:02:35;;;;;;;7.43;6.20;;;;;;;9.29;71.93;97935.44;6268324;28;20629;-54
2023/04/17 07:05:37;;;;;;;6.90;6.20;;;;;;;9.40;70.77;97907.25;6268984;28;20234;-54
2023/04/17 07:08:39;;;;;;;6.87;6.17;;;;;;;9.57;71.65;97923.34;6269540;28;20226;-52
2023/04/17 07:11:41;;;;;;;6.47;5.83;;;;;;;9.67;70.39;97933.44;6266061;28;20292;-53
2023/04/17 07:14:43;;;;;;;7.73;6.40;;;;;;;9.68;70.66;97932.38;6270862;28;20272;-52
2023/04/17 07:17:45;;;;;;;8.60;6.67;;;;;;;9.47;69.81;97869.94;6267409;28;20261;-51
2023/04/17 07:20:48;;;;;;;6.83;6.03;;;;;;;9.77;70.06;97926.50;6272583;28;20320;-54
2023/04/17 07:23:50;;;;;;;7.03;6.33;;;;;;;9.94;70.26;97939.09;6270495;28;20302;-52
2023/04/17 07:26:52;;;;;;;5.77;5.13;;;;;;;10.22;68.82;97936.56;6252474;28;20246;-52
2023/04/17 07:29:55;;;;;;;6.33;5.73;;;;;;;10.27;68.23;97943.88;6268461;28;20736;-52
2023/04/17 07:32:57;;;;;;;9.43;6.87;;;;;;;10.18;68.42;97937.25;6269984;28;20613;-53
2023/04/17 07:35:59;;;;;;;7.17;6.47;;;;;;;10.08;68.88;97943.16;6268424;28;20290;-54
2023/04/17 07:39:01;;;;;;;6.07;5.40;;;;;;;10.19;68.25;97944.19;6269459;28;20261;-54
2023/04/17 07:42:05;;;;;;;6.70;6.07;;;;;;;10.33;67.28;97942.94;6267084;28;20590;-53
2023/04/17 07:45:08;;;;;;;7.07;6.10;;;;;;;10.27;68.26;97941.22;6268831;28;20242;-52
2023/04/17 07:48:10;;;;;;;6.87;6.00;;;;;;;10.18;67.47;97954.03;6265890;28;20209;-55
2023/04/17 07:51:12;;;;;;;6.60;5.90;;;;;;;10.01;69.20;97945.16;6268826;28;20385;-54
2023/04/17 07:54:14;;;;;;;7.30;6.47;;;;;;;9.85;67.99;97924.53;6268921;28;20230;-56
2023/04/17 07:57:17;;;;;;;7.27;5.93;;;;;;;10.06;69.04;97963.88;6268232;28;20289;-54
2023/04/17 08:00:20;;;;;;;7.93;6.87;;;;;;;10.17;67.85;97962.25;6268457;28;20279;-53
2023/04/17 08:03:22;;;;;;;7.00;6.30;;;;;;;10.09;68.53;97961.56;6265053;28;21259;-53
2023/04/17 08:06:26;;;;;;;8.17;6.50;;;;;;;10.04;68.74;97964.09;6268264;28;20227;-55
2023/04/17 08:09:28;;;;;;;8.90;6.50;;;;;;;10.10;68.03;97965.06;6260465;28;20234;-54
2023/04/17 08:12:30;;;;;;;8.07;6.40;;;;;;;10.22;69.39;97970.38;6267364;28;20236;-52
2023/04/17 08:15:32;;;;;;;6.97;6.03;;;;;;;10.17;68.70;97968.41;6269264;28;20238;-53
2023/04/17 08:18:36;;;;;;;9.30;6.97;;;;;;;10.32;67.75;97947.47;6267670;28;20833;-52
2023/04/17 08:21:38;;;;;;;7.00;5.73;;;;;;;10.53;69.03;97961.22;6262781;28;20241;-53
2023/04/17 08:24:41;;;;;;;7.80;6.93;;;;;;;10.70;66.60;97932.81;6268700;28;20608;-52
2023/04/17 08:27:44;;;;;;;7.60;6.53;;;;;;;10.85;65.72;97964.28;6266110;28;20321;-54
2023/04/17 08:30:46;;;;;;;7.73;5.97;;;;;;;10.82;65.95;97954.09;6265312;28;20584;-52
2023/04/17 08:33:48;;;;;;;7.53;6.77;;;;;;;10.78;67.14;97958.25;6267634;28;20753;-53
2023/04/17 08:36:55;;;;;;;8.47;6.87;;;;;;;10.46;67.66;97910.75;6263783;28;20238;-52
2023/04/17 08:39:57;;;;;;;6.77;6.03;;;;;;;10.87;67.71;97954.19;6248268;28;20241;-53
2023/04/17 08:43:01;;;;;;;6.20;5.47;;;;;;;11.10;66.00;97958.63;6266359;28;20231;-52
2023/04/17 08:46:03;;;;;;;8.27;6.87;;;;;;;10.95;65.41;97953.00;6263334;28;20240;-53
2023/04/17 08:49:05;;;;;;;7.23;6.47;;;;;;;10.83;66.36;97937.84;6259459;28;20738;-52
2023/04/17 08:52:08;;;;;;;8.30;6.57;;;;;;;11.05;65.68;97951.34;6266020;28;20230;-54
2023/04/17 08:55:16;;;;;;;8.07;6.37;;;;;;;11.13;67.69;97942.13;6266504;28;20229;-52
2023/04/17 08:58:20;;;;;;;6.27;5.67;;;;;;;11.32;66.95;97951.56;6260333;28;20249;-51
2023/04/17 09:01:22;;;;;;;7.50;6.63;;;;;;;11.39;65.29;97943.44;6269210;28;20233;-51
2023/04/17 09:04:42;;;;;;;7.70;6.90;;;;;;;11.54;65.00;97949.03;6267273;28;20606;-50
2023/04/17 09:07:45;;;;;;;7.73;6.60;;;;;;;11.43;64.33;97949.06;6266708;28;20723;-52
2023/04/17 09:10:49;;;;;;;8.40;6.97;;;;;;;11.54;65.26;97954.34;6266569;28;20244;-51
2023/04/17 09:13:52;;;;;;;8.37;6.70;;;;;;;11.71;63.01;97951.69;6267414;28;20312;-52
2023/04/17 09:16:54;;;;;;;7.77;6.87;;;;;;;11.80;63.43;97938.75;6265790;28;20241;-50
2023/04/17 09:20:06;;;;;;;7.17;6.47;;;;;;;11.98;65.41;97948.41;6266249;28;20256;-52
2023/04/17 09:23:08;;;;;;;6.77;6.03;;;;;;;12.35;62.47;97929.97;6258999;28;20279;-53
2023/04/17 09:26:12;;;;;;;8.23;6.30;;;;;;;12.43;60.51;97940.25;6264813;28;20705;-52
2023/04/17 09:29:15;;;;;;;7.43;6.67;;;;;;;12.62;61.60;97944.22;6263338;28;20245;-52
2023/04/17 09:32:17;;;;;;;8.43;6.57;;;;;;;12.67;62.25;97940.00;6265761;28;20234;-51
2023/04/17 09:35:27;;;;;;;7.23;6.57;;;;;;;12.78;59.46;97939.06;6265513;28;20225;-52
2023/04/17 09:38:36;;;;;;;6.80;6.07;;;;;;;12.71;60.78;97925.06;6262000;28;20238;-53
2023/04/17 09:41:38;;;;;;;7.37;6.67;;;;;;;12.63;59.86;97943.16;6263910;28;20308;-53
2023/04/17 09:44:41;;;;;;;7.13;6.30;;;;;;;12.55;60.27;97916.88;6265668;28;20226;-52
2023/04/17 09:47:46;;;;;;;8.63;6.50;;;;;;;12.61;61.41;97923.06;6265691;28;20238;-53
2023/04/17 09:50:48;;;;;;;7.00;6.30;;;;;;;12.74;62.21;97920.03;6266995;28;20243;-53
2023/04/17 09:53:52;;;;;;;7.73;6.97;;;;;;;12.55;62.52;97921.41;6262836;28;20238;-53
2023/04/17 09:56:54;;;;;;;6.97;6.27;;;;;;;12.39;61.99;97885.69;6265815;28;20277;-54
2023/04/17 10:00:00;;;;;;;6.97;6.10;;;;;;;12.64;60.85;97917.25;6265514;28;20319;-53
2023/04/17 10:03:06;;;;;;;6.17;5.57;;;;;;;12.70;62.74;97924.25;6264905;28;20848;-54
2023/04/17 10:06:09;;;;;;;7.53;6.27;;;;;;;13.05;60.19;97915.03;6264726;28;20215;-53
2023/04/17 10:09:11;;;;;;;7.33;6.60;;;;;;;12.87;59.44;97922.34;6260913;28;20216;-53
2023/04/17 10:12:15;;;;;;;8.33;7.10;;;;;;;12.72;60.23;97894.63;6247407;28;20321;-52
2023/04/17 10:15:19;;;;;;;9.20;7.63;;;;;;;12.61;62.30;97912.38;6265084;28;20615;-49
2023/04/17 10:18:23;;;;;;;7.17;6.23;;;;;;;12.43;60.89;97881.47;6265686;28;20241;-53
2023/04/17 10:21:27;;;;;;;8.27;6.93;;;;;;;12.77;60.87;97908.06;6240452;28;20233;-52
2023/04/17 10:24:29;;;;;;;6.87;6.17;;;;;;;12.78;62.29;97905.13;6247425;28;20337;-52
2023/04/17 10:27:31;;;;;;;7.97;7.17;;;;;;;12.81;60.72;97895.81;6262946;28;20365;-52
2023/04/17 10:30:52;;;;;;;8.03;7.17;;;;;;;12.61;61.33;97896.34;6262904;28;20227;-52
2023/04/17 10:33:56;;;;;;;10.33;7.10;;;;;;;12.90;63.11;97891.59;6263616;28;20263;-54
2023/04/17 10:37:00;;;;;;;6.90;6.20;;;;;;;13.24;62.21;97888.75;6267053;28;20641;-52
2023/04/17 10:40:08;;;;;;;7.73;6.93;;;;;;;13.56;59.37;97876.22;6266242;28;20241;-53
2023/04/17 10:43:21;;;;;;;6.07;5.27;;;;;;;13.63;60.43;97879.47;6269204;28;20268;-52
2023/04/17 10:46:25;;;;;;;7.73;6.50;;;;;;;13.72;60.04;97877.13;6266655;28;20238;-53
2023/04/17 10:49:27;;;;;;;6.90;6.20;;;;;;;14.04;58.33;97870.88;6269236;28;20628;-54
2023/04/17 10:52:41;;;;;;;6.97;6.30;;;;;;;14.06;57.24;97863.41;6269451;28;20238;-53
2023/04/17 10:55:50;;;;;;;6.97;6.33;;;;;;;14.05;60.80;97873.31;6265651;28;20248;-50
2023/04/17 10:58:57;;;;;;;7.33;6.63;;;;;;;14.13;58.29;97848.72;6269703;28;20313;-53
2023/04/17 11:01:59;;;;;;;7.20;6.50;;;;;;;14.28;57.83;97855.22;6269458;28;20366;-53
2023/04/17 11:05:06;;;;;;;6.83;6.13;;;;;;;14.20;57.73;97854.66;6267851;28;20710;-53
2023/04/17 11:08:09;;;;;;;7.53;6.10;;;;;;;14.15;57.97;97843.91;6268924;28;20227;-54
2023/04/17 11:11:11;;;;;;;7.93;6.80;;;;;;;14.03;58.25;97845.97;6269237;28;20318;-54
2023/04/17 11:14:15;;;;;;;7.20;6.43;;;;;;;14.25;58.72;97837.00;6265040;28;20234;-54
2023/04/17 11:17:20;;;;;;;7.90;7.10;;;;;;;14.41;57.39;97849.38;6269260;28;20230;-54
2023/04/17 11:20:30;;;;;;;8.47;6.43;;;;;;;14.36;57.79;97846.69;6268806;28;20238;-54
2023/04/17 11:23:32;;;;;;;7.50;6.10;;;;;;;14.29;58.09;97846.94;6265567;28;20266;-53
2023/04/17 11:26:45;;;;;;;7.27;6.57;;;;;;;14.33;57.13;97850.69;6284099;28;20270;-53
2023/04/17 11:29:47;;;;;;;7.90;7.10;;;;;;;14.30;56.57;97850.41;6267641;28;20792;-55
2023/04/17 11:32:51;;;;;;;7.33;6.57;;;;;;;14.27;57.46;97854.41;6267655;28;20406;-54
2023/04/17 11:35:53;;;;;;;7.57;6.77;;;;;;;14.37;58.24;97842.94;6265774;28;20231;-54
2023/04/17 11:38:56;;;;;;;7.33;6.63;;;;;;;14.27;57.21;97858.97;6269818;28;20269;-54
2023/04/17 11:41:59;;;;;;;7.07;6.33;;;;;;;14.02;57.15;97833.66;6269586;28;20234;-53
2023/04/17 11:45:06;;;;;;;6.80;6.13;;;;;;;14.12;58.06;97833.72;6265992;28;20257;-54
2023/04/17 11:48:10;;;;;;;6.87;6.27;;;;;;;14.20;57.51;97837.78;6265125;28;20215;-52
2023/04/17 11:51:16;;;;;;;7.27;6.57;;;;;;;14.45;58.65;97850.47;6268746;28;20361;-57
2023/04/17 11:54:24;;;;;;;7.30;6.60;;;;;;;14.56;56.82;97848.66;6284042;28;20592;-55
2023/04/17 11:57:26;;;;;;;7.17;6.47;;;;;;;14.61;56.26;97836.06;6293308;28;20302;-49
2023/04/17 12:00:28;;;;;;;7.97;7.17;;;;;;;14.69;55.91;97840.13;6292917;28;20709;-45
2023/04/17 12:03:33;;;;;;;7.40;6.70;;;;;;;14.79;56.05;97831.31;6292437;28;20311;-47
2023/04/17 12:06:36;;;;;;;6.40;5.57;;;;;;;14.79;55.82;97832.09;6289573;28;20739;-46
2023/04/17 12:09:38;;;;;;;8.13;6.00;;;;;;;14.92;55.63;97838.81;6293009;28;20307;-46
2023/04/17 12:12:43;;;;;;;7.40;6.70;;;;;;;14.69;54.26;97832.09;6292338;28;20234;-46
2023/04/17 12:15:46;;;;;;;7.07;6.37;;;;;;;14.40;55.79;97837.84;6292499;28;20606;-45
2023/04/17 12:18:48;;;;;;;8.50;6.97;;;;;;;14.66;54.68;97817.31;6292837;28;20237;-46
2023/04/17 12:21:51;;;;;;;6.97;6.27;;;;;;;14.57;55.71;97826.94;6293729;28;20265;-50
2023/04/17 12:24:53;;;;;;;7.50;6.70;;;;;;;14.77;56.44;97825.38;6290401;28;20374;-45
2023/04/17 12:27:57;;;;;;;6.30;5.70;;;;;;;14.86;55.92;97829.97;6290105;28;20275;-49
2023/04/17 12:31:00;;;;;;;7.13;6.20;;;;;;;14.54;56.81;97832.03;6288545;28;20230;-46
2023/04/17 12:34:02;;;;;;;6.90;6.17;;;;;;;14.77;56.33;97828.06;6291284;28;20233;-47
2023/04/17 12:37:04;;;;;;;7.00;6.30;;;;;;;14.90;58.06;97832.94;6291131;28;20721;-46
2023/04/17 12:40:08;;;;;;;7.03;6.23;;;;;;;15.00;53.87;97826.78;6292166;28;20235;-47
2023/04/17 12:43:10;;;;;;;11.03;7.30;;;;;;;14.87;53.82;97828.09;6292361;28;20318;-48
2023/04/17 12:46:13;;;;;;;7.03;6.33;;;;;;;14.79;55.86;97823.25;6291658;28;20307;-46
2023/04/17 12:49:15;;;;;;;6.50;5.83;;;;;;;14.64;57.15;97826.72;6291668;28;20234;-49
2023/04/17 12:52:17;;;;;;;6.83;6.23;;;;;;;14.57;55.45;97820.78;6289999;28;20774;-50
2023/04/17 12:55:19;;;;;;;6.67;6.00;;;;;;;14.87;55.53;97818.16;6292181;28;20229;-50
2023/04/17 12:58:21;;;;;;;7.23;5.87;;;;;;;15.03;56.25;97816.31;6270040;28;20229;-47
2023/04/17 13:01:25;;;;;;;6.73;6.13;;;;;;;15.08;55.17;97829.75;6291169;28;20324;-50
2023/04/17 13:04:27;;;;;;;7.67;6.10;;;;;;;15.05;53.63;97808.81;6291310;28;20321;-50
2023/04/17 13:07:29;;;;;;;5.70;5.00;;;;;;;15.11;54.89;97814.97;6291488;28;20237;-49
2023/04/17 13:10:33;;;;;;;6.93;6.23;;;;;;;14.95;53.06;97816.84;6295247;28;20696;-48
2023/04/17 13:13:35;;;;;;;6.67;5.97;;;;;;;14.70;55.09;97813.03;6273643;28;20230;-46
2023/04/17 13:16:38;;;;;;;6.97;6.33;;;;;;;14.20;56.31;97825.19;6291574;28;20229;-50
2023/04/17 13:19:40;;;;;;;6.57;5.97;;;;;;;14.16;56.58;97818.72;6287914;28;20230;-45
2023/04/17 13:22:42;;;;;;;6.43;5.83;;;;;;;13.82;57.85;97774.63;6291528;28;20233;-45
2023/04/17 13:25:44;;;;;;;6.40;5.70;;;;;;;14.16;57.51;97804.53;6295059;28;20233;-45
2023/04/17 13:28:46;;;;;;;6.43;5.83;;;;;;;14.22;57.09;97816.06;6289474;28;20637;-48
2023/04/17 13:31:48;;;;;;;6.80;6.10;;;;;;;14.13;56.50;97813.06;6290414;28;20238;-46
2023/04/17 13:34:50;;;;;;;7.33;6.63;;;;;;;14.03;58.83;97813.84;6289487;28;20241;-49
2023/04/17 13:37:53;;;;;;;7.33;6.63;;;;;;;14.13;58.04;97816.56;6292139;28;20233;-44
2023/04/17 13:40:55;;;;;;;9.00;6.60;;;;;;;14.02;57.93;97811.41;6271029;28;20229;-48
2023/04/17 13:43:57;;;;;;;7.40;6.30;;;;;;;14.10;58.04;97825.13;6290295;28;20233;-44
2023/04/17 13:47:02;;;;;;;6.67;6.07;;;;;;;14.03;58.17;97787.03;6290930;28;20316;-45
2023/04/17 13:50:05;;;;;;;7.73;6.93;;;;;;;14.05;57.05;97816.28;6290779;28;20263;-46
2023/04/17 13:53:07;;;;;;;7.60;6.70;;;;;;;13.93;57.45;97813.78;6292009;28;20689;-43
2023/04/17 13:56:12;;;;;;;6.17;5.57;;;;;;;13.87;58.44;97806.78;6291066;28;20367;-45
2023/04/17 13:59:14;;;;;;;7.47;6.77;;;;;;;13.86;57.43;97807.88;6291323;28;20233;-45
2023/04/17 14:02:16;;;;;;;7.63;6.03;;;;;;;13.65;58.26;97818.47;6289113;28;20328;-47
2023/04/17 14:05:19;;;;;;;7.53;6.83;;;;;;;13.54;59.13;97819.44;6295389;28;20298;-47
2023/04/17 14:08:21;;;;;;;6.43;5.90;;;;;;;13.29;63.02;97827.28;6295767;28;20727;-46
2023/04/17 14:11:23;;;;;;;7.40;6.70;;;;;;;12.94;64.04;97798.31;6295015;28;20230;-44
2023/04/17 14:14:25;;;;;;;7.27;6.57;;;;;;;12.95;62.98;97803.41;6290369;28;20230;-46
2023/04/17 14:17:28;;;;;;;7.90;7.13;;;;;;;12.60;63.96;97802.00;6288779;28;20233;-44
2023/04/17 14:20:31;;;;;;;7.23;6.53;;;;;;;12.63;64.71;97787.34;6286389;28;20229;-44
2023/04/17 14:23:33;;;;;;;7.60;6.90;;;;;;;13.01;63.51;97809.63;6291239;28;20222;-48
2023/04/17 14:26:36;;;;;;;7.77;7.07;;;;;;;12.79;63.21;97809.69;6291641;28;20239;-45
2023/04/17 14:29:38;;;;;;;7.77;6.97;;;;;;;12.80;64.01;97811.28;6288512;28;20320;-45